Time,TemperatureF,DewpointF,PressureIn,WindDirection,WindDirectionDegrees,WindSpeedMPH,WindSpeedGustMPH,Humidity,HourlyPrecipIn,Conditions,Clouds,dailyrainin,SoftwareType,DateUTC
2013-01-06 00:00:00,12.7,7.4,29.36,NW,315,0.0,5.1,79,0.00,,,0.00,WUHU21623XXSP,2013-01-06 06:00:00,
2013-01-06 00:05:00,12.6,7.2,29.36,WNW,292,2.9,2.9,79,0.00,,,0.00,WUHU21623XXSP,2013-01-06 06:05:00,
2013-01-06 00:10:00,12.4,7.1,29.36,WNW,292,0.0,2.9,79,0.00,,,0.00,WUHU21623XXSP,2013-01-06 06:10:00,
2013-01-06 00:15:00,12.4,7.1,29.36,WNW,292,2.7,2.9,79,0.00,,,0.00,WUHU21623XXSP,2013-01-06 06:15:00,
2013-01-06 00:20:00,12.4,7.1,29.37,WNW,292,1.1,2.7,79,0.00,,,0.00,WUHU21623XXSP,2013-01-06 06:20:00,
2013-01-06 00:25:00,12.6,7.2,29.37,WNW,292,0.0,1.6,79,0.00,,,0.00,WUHU21623XXSP,2013-01-06 06:25:00,
2013-01-06 00:30:00,12.7,7.4,29.38,WNW,292,6.5,6.5,79,0.00,,,0.00,WUHU21623XXSP,2013-01-06 06:30:00,
2013-01-06 00:36:00,12.9,7.6,29.38,WNW,292,2.7,6.5,79,0.00,,,0.00,WUHU21623XXSP,2013-01-06 06:36:00,
2013-01-06 00:41:00,13.1,7.8,29.38,WNW,292,0.0,2.7,79,0.00,,,0.00,WUHU21623XXSP,2013-01-06 06:41:00,
2013-01-06 00:46:00,13.3,8.0,29.38,WNW,292,0.0,2.7,79,0.00,,,0.00,WUHU21623XXSP,2013-01-06 06:46:00,
2013-01-06 00:51:00,13.1,7.8,29.38,WNW,292,0.0,0.0,79,0.00,,,0.00,WUHU21623XXSP,2013-01-06 06:51:00,
2013-01-06 00:56:00,13.1,7.8,29.38,NW,315,0.0,0.0,79,0.00,,,0.00,WUHU21623XXSP,2013-01-06 06:56:00,
2013-01-06 01:01:00,13.1,7.8,29.38,NW,315,0.0,1.6,79,0.00,,,0.00,WUHU21623XXSP,2013-01-06 07:01:00,
2013-01-06 01:06:00,13.1,7.8,29.38,NW,315,0.0,3.8,79,0.00,,,0.00,WUHU21623XXSP,2013-01-06 07:06:00,
2013-01-06 01:11:00,12.9,7.6,29.39,NNW,337,0.0,3.8,79,0.00,,,0.00,WUHU21623XXSP,2013-01-06 07:11:00,
2013-01-06 01:16:00,12.7,7.4,29.39,NW,315,0.0,0.0,79,0.00,,,0.00,WUHU21623XXSP,2013-01-06 07:16:00,
2013-01-06 01:21:00,12.7,7.4,29.39,WNW,292,0.0,0.0,79,0.00,,,0.00,WUHU21623XXSP,2013-01-06 07:21:00,
2013-01-06 01:26:00,12.4,7.1,29.39,WNW,292,6.3,6.3,79,0.00,,,0.00,WUHU21623XXSP,2013-01-06 07:26:00,
2013-01-06 01:31:00,12.2,6.9,29.39,WNW,292,0.0,6.3,79,0.00,,,0.00,WUHU21623XXSP,2013-01-06 07:31:00,
2013-01-06 01:36:00,12.0,6.7,29.40,WNW,292,0.0,1.6,79,0.00,,,0.00,WUHU21623XXSP,2013-01-06 07:36:00,
2013-01-06 01:41:00,12.0,6.7,29.39,WNW,292,0.0,1.6,79,0.00,,,0.00,WUHU21623XXSP,2013-01-06 07:41:00,
2013-01-06 01:46:00,12.0,7.0,29.40,WNW,292,0.0,0.0,80,0.00,,,0.00,WUHU21623XXSP,2013-01-06 07:46:00,
2013-01-06 01:51:00,11.8,6.8,29.40,WNW,292,3.4,3.4,80,0.00,,,0.00,WUHU21623XXSP,2013-01-06 07:51:00,
2013-01-06 01:56:00,11.8,6.8,29.40,WNW,292,4.9,4.9,80,0.00,,,0.00,WUHU21623XXSP,2013-01-06 07:56:00,
2013-01-06 02:01:00,11.8,6.8,29.40,WNW,292,5.1,5.1,80,0.00,,,0.00,WUHU21623XXSP,2013-01-06 08:01:00,
2013-01-06 02:06:00,11.8,6.8,29.40,WNW,292,0.0,5.1,80,0.00,,,0.00,WUHU21623XXSP,2013-01-06 08:06:00,
2013-01-06 02:11:00,11.7,6.6,29.40,WNW,292,0.0,2.7,80,0.00,,,0.00,WUHU21623XXSP,2013-01-06 08:11:00,
2013-01-06 02:16:00,11.7,6.6,29.41,NW,315,0.0,2.7,80,0.00,,,0.00,WUHU21623XXSP,2013-01-06 08:16:00,
2013-01-06 02:21:00,11.7,6.6,29.41,West,270,0.0,0.0,80,0.00,,,0.00,WUHU21623XXSP,2013-01-06 08:21:00,
2013-01-06 02:26:00,11.5,6.4,29.41,West,270,0.0,0.0,80,0.00,,,0.00,WUHU21623XXSP,2013-01-06 08:26:00,
2013-01-06 02:31:00,11.5,6.4,29.40,WNW,292,3.1,6.5,80,0.00,,,0.00,WUHU21623XXSP,2013-01-06 08:31:00,
2013-01-06 02:36:00,11.5,6.4,29.41,WNW,292,0.0,6.5,80,0.00,,,0.00,WUHU21623XXSP,2013-01-06 08:36:00,
2013-01-06 02:41:00,11.3,6.3,29.41,NW,315,0.0,0.0,80,0.00,,,0.00,WUHU21623XXSP,2013-01-06 08:41:00,
2013-01-06 02:46:00,11.3,6.3,29.41,West,270,0.0,0.0,80,0.00,,,0.00,WUHU21623XXSP,2013-01-06 08:46:00,
2013-01-06 02:51:00,11.3,6.5,29.41,WNW,292,3.4,3.4,81,0.00,,,0.00,WUHU21623XXSP,2013-01-06 08:51:00,
2013-01-06 02:56:00,11.3,6.5,29.41,WNW,292,0.0,3.4,81,0.00,,,0.00,WUHU21623XXSP,2013-01-06 08:56:00,
2013-01-06 03:01:00,11.5,6.7,29.42,WNW,292,2.0,2.9,81,0.00,,,0.00,WUHU21623XXSP,2013-01-06 09:01:00,
2013-01-06 03:06:00,11.7,6.9,29.42,NW,315,0.0,2.0,81,0.00,,,0.00,WUHU21623XXSP,2013-01-06 09:06:00,
2013-01-06 03:11:00,12.0,7.5,29.43,WNW,292,2.9,2.9,82,0.00,,,0.00,WUHU21623XXSP,2013-01-06 09:11:00,
2013-01-06 03:16:00,12.4,7.9,29.43,NW,315,0.0,6.0,82,0.00,,,0.00,WUHU21623XXSP,2013-01-06 09:16:00,
2013-01-06 03:21:00,12.6,7.9,29.43,WNW,292,3.1,6.0,82,0.00,,,0.00,WUHU21623XXSP,2013-01-06 09:21:00,
2013-01-06 03:26:00,12.7,8.2,29.43,WNW,292,0.0,3.1,82,0.00,,,0.00,WUHU21623XXSP,2013-01-06 09:26:00,
2013-01-06 03:32:00,13.1,8.6,29.43,WNW,292,4.9,4.9,82,0.00,,,0.00,WUHU21623XXSP,2013-01-06 09:32:00,
2013-01-06 03:37:00,13.3,8.8,29.43,WNW,292,0.0,4.9,82,0.00,,,0.00,WUHU21623XXSP,2013-01-06 09:37:00,
2013-01-06 03:42:00,13.6,9.4,29.43,West,270,0.0,6.9,83,0.00,,,0.00,WUHU21623XXSP,2013-01-06 09:42:00,
2013-01-06 03:47:00,13.8,9.6,29.43,WNW,292,0.0,6.9,83,0.00,,,0.00,WUHU21623XXSP,2013-01-06 09:47:00,
2013-01-06 03:52:00,13.8,9.6,29.44,WNW,292,0.0,1.1,83,0.00,,,0.00,WUHU21623XXSP,2013-01-06 09:52:00,
2013-01-06 03:57:00,14.2,9.9,29.43,West,270,0.0,1.1,83,0.00,,,0.00,WUHU21623XXSP,2013-01-06 09:57:00,
2013-01-06 04:02:00,14.4,9.9,29.43,WNW,292,4.9,4.9,83,0.00,,,0.00,WUHU21623XXSP,2013-01-06 10:02:00,
2013-01-06 04:07:00,14.5,10.1,29.44,WNW,292,1.6,4.9,83,0.00,,,0.00,WUHU21623XXSP,2013-01-06 10:07:00,
2013-01-06 04:12:00,14.7,10.5,29.44,NW,315,3.4,6.5,83,0.00,,,0.00,WUHU21623XXSP,2013-01-06 10:12:00,
2013-01-06 04:17:00,14.7,10.5,29.44,WNW,292,0.0,6.5,83,0.00,,,0.00,WUHU21623XXSP,2013-01-06 10:17:00,
2013-01-06 04:22:00,14.7,10.5,29.44,WNW,292,2.9,4.5,83,0.00,,,0.00,WUHU21623XXSP,2013-01-06 10:22:00,
2013-01-06 04:27:00,14.5,10.3,29.44,WNW,292,7.6,7.6,83,0.00,,,0.00,WUHU21623XXSP,2013-01-06 10:27:00,
2013-01-06 04:32:00,14.2,9.9,29.44,West,270,7.6,7.6,83,0.00,,,0.00,WUHU21623XXSP,2013-01-06 10:32:00,
2013-01-06 04:37:00,13.8,9.6,29.45,WNW,292,0.0,7.6,83,0.00,,,0.00,WUHU21623XXSP,2013-01-06 10:37:00,
2013-01-06 04:42:00,13.6,9.4,29.45,WNW,292,3.6,4.7,83,0.00,,,0.00,WUHU21623XXSP,2013-01-06 10:42:00,
2013-01-06 04:47:00,13.6,9.4,29.45,WNW,292,3.8,3.8,83,0.00,,,0.00,WUHU21623XXSP,2013-01-06 10:47:00,
2013-01-06 04:52:00,13.3,9.1,29.45,WNW,292,1.8,5.8,83,0.00,,,0.00,WUHU21623XXSP,2013-01-06 10:52:00,
2013-01-06 04:57:00,13.3,8.8,29.45,WNW,292,0.0,5.8,82,0.00,,,0.00,WUHU21623XXSP,2013-01-06 10:57:00,
2013-01-06 05:02:00,13.1,8.6,29.46,WNW,292,4.9,4.9,82,0.00,,,0.00,WUHU21623XXSP,2013-01-06 11:02:00,
2013-01-06 05:07:00,12.9,8.4,29.46,WNW,292,4.9,4.9,82,0.00,,,0.00,WUHU21623XXSP,2013-01-06 11:07:00,
2013-01-06 05:12:00,12.7,8.2,29.45,WNW,292,0.0,4.9,82,0.00,,,0.00,WUHU21623XXSP,2013-01-06 11:12:00,
2013-01-06 05:17:00,12.7,8.2,29.45,West,270,0.0,1.3,82,0.00,,,0.00,WUHU21623XXSP,2013-01-06 11:17:00,
2013-01-06 05:22:00,12.7,8.2,29.45,WNW,292,0.0,0.0,82,0.00,,,0.00,WUHU21623XXSP,2013-01-06 11:22:00,
2013-01-06 05:27:00,12.6,8.1,29.46,WNW,292,0.0,2.7,82,0.00,,,0.00,WUHU21623XXSP,2013-01-06 11:27:00,
2013-01-06 05:32:00,12.6,8.1,29.46,WNW,292,0.0,2.7,82,0.00,,,0.00,WUHU21623XXSP,2013-01-06 11:32:00,
2013-01-06 05:37:00,12.4,7.9,29.46,WNW,292,0.0,3.8,82,0.00,,,0.00,WUHU21623XXSP,2013-01-06 11:37:00,
2013-01-06 05:42:00,12.2,7.4,29.46,WNW,292,2.5,3.8,81,0.00,,,0.00,WUHU21623XXSP,2013-01-06 11:42:00,
2013-01-06 05:47:00,12.0,7.3,29.47,WNW,292,5.8,5.8,81,0.00,,,0.00,WUHU21623XXSP,2013-01-06 11:47:00,
2013-01-06 05:52:00,11.8,7.1,29.46,WNW,292,2.5,6.3,81,0.00,,,0.00,WUHU21623XXSP,2013-01-06 11:52:00,
2013-01-06 05:57:00,11.5,6.7,29.46,WNW,292,2.0,6.3,81,0.00,,,0.00,WUHU21623XXSP,2013-01-06 11:57:00,
2013-01-06 06:02:00,11.1,6.5,29.46,WNW,292,6.9,6.9,81,0.00,,,0.00,WUHU21623XXSP,2013-01-06 12:02:00,
2013-01-06 06:07:00,10.9,5.9,29.47,WNW,292,0.0,6.9,80,0.00,,,0.00,WUHU21623XXSP,2013-01-06 12:07:00,
2013-01-06 06:12:00,10.6,5.5,29.47,WNW,292,0.0,6.9,80,0.00,,,0.00,WUHU21623XXSP,2013-01-06 12:12:00,
2013-01-06 06:17:00,10.2,4.9,29.47,WNW,292,6.9,6.9,79,0.00,,,0.00,WUHU21623XXSP,2013-01-06 12:17:00,
2013-01-06 06:22:00,10.0,4.7,29.47,NNW,337,0.0,6.9,79,0.00,,,0.00,WUHU21623XXSP,2013-01-06 12:22:00,
2013-01-06 06:27:00,10.0,4.7,29.47,WNW,292,0.0,0.0,79,0.00,,,0.00,WUHU21623XXSP,2013-01-06 12:27:00,
2013-01-06 06:32:00,9.7,4.4,29.48,WNW,292,5.8,5.8,79,0.00,,,0.00,WUHU21623XXSP,2013-01-06 12:32:00,
2013-01-06 06:37:00,9.7,4.4,29.48,NW,315,0.0,5.8,79,0.00,,,0.00,WUHU21623XXSP,2013-01-06 12:37:00,
2013-01-06 06:42:00,9.5,4.3,29.49,WNW,292,0.0,3.4,79,0.00,,,0.00,WUHU21623XXSP,2013-01-06 12:42:00,
2013-01-06 06:47:00,9.3,4.1,29.48,West,270,0.0,0.0,79,0.00,,,0.00,WUHU21623XXSP,2013-01-06 12:47:00,
2013-01-06 06:53:00,9.1,3.6,29.49,WNW,292,0.0,0.0,78,0.00,,,0.00,WUHU21623XXSP,2013-01-06 12:53:00,
2013-01-06 06:58:00,9.1,3.6,29.49,WNW,292,0.0,0.0,78,0.00,,,0.00,WUHU21623XXSP,2013-01-06 12:58:00,
2013-01-06 07:02:00,9.1,3.6,29.50,WNW,292,0.0,0.0,78,0.00,,,0.00,WUHU21623XXSP,2013-01-06 13:02:00,
2013-01-06 07:08:00,9.1,3.6,29.51,West,270,0.0,0.0,78,0.00,,,0.00,WUHU21623XXSP,2013-01-06 13:08:00,
2013-01-06 07:13:00,9.1,3.6,29.51,WNW,292,0.0,0.0,78,0.00,,,0.00,WUHU21623XXSP,2013-01-06 13:13:00,
2013-01-06 07:18:00,9.1,3.6,29.51,WNW,292,0.0,0.0,78,0.00,,,0.00,WUHU21623XXSP,2013-01-06 13:18:00,
2013-01-06 07:23:00,8.8,3.3,29.51,NW,315,0.0,0.0,78,0.00,,,0.00,WUHU21623XXSP,2013-01-06 13:23:00,
2013-01-06 07:28:00,8.6,2.9,29.51,NW,315,0.0,0.0,77,0.00,,,0.00,WUHU21623XXSP,2013-01-06 13:28:00,
2013-01-06 07:33:00,8.6,2.9,29.51,NW,315,0.0,0.0,77,0.00,,,0.00,WUHU21623XXSP,2013-01-06 13:33:00,
2013-01-06 07:38:00,8.4,2.7,29.52,WNW,292,0.0,0.0,77,0.00,,,0.00,WUHU21623XXSP,2013-01-06 13:38:00,
2013-01-06 07:43:00,8.4,2.7,29.52,WNW,292,0.0,0.0,77,0.00,,,0.00,WUHU21623XXSP,2013-01-06 13:43:00,
2013-01-06 07:48:00,8.2,2.5,29.52,WNW,292,0.0,0.0,77,0.00,,,0.00,WUHU21623XXSP,2013-01-06 13:48:00,
2013-01-06 07:53:00,8.2,2.5,29.53,WNW,292,0.0,0.0,77,0.00,,,0.00,WUHU21623XXSP,2013-01-06 13:53:00,
2013-01-06 07:58:00,8.2,2.8,29.52,West,270,0.0,0.0,78,0.00,,,0.00,WUHU21623XXSP,2013-01-06 13:58:00,
2013-01-06 08:03:00,8.2,2.8,29.52,West,270,0.0,0.0,78,0.00,,,0.00,WUHU21623XXSP,2013-01-06 14:03:00,
2013-01-06 08:08:00,8.2,2.8,29.52,WNW,292,0.0,0.0,78,0.00,,,0.00,WUHU21623XXSP,2013-01-06 14:08:00,
2013-01-06 08:13:00,8.2,2.8,29.52,WNW,292,0.0,0.0,78,0.00,,,0.00,WUHU21623XXSP,2013-01-06 14:13:00,
2013-01-06 08:18:00,8.4,3.0,29.52,WNW,292,0.0,0.0,78,0.00,,,0.00,WUHU21623XXSP,2013-01-06 14:18:00,
2013-01-06 08:23:00,8.2,2.8,29.52,West,270,0.0,0.0,78,0.00,,,0.00,WUHU21623XXSP,2013-01-06 14:23:00,
2013-01-06 08:28:00,8.4,3.0,29.53,West,270,0.0,0.0,78,0.00,,,0.00,WUHU21623XXSP,2013-01-06 14:28:00,
2013-01-06 08:33:00,8.4,3.0,29.53,WNW,292,0.0,0.0,78,0.00,,,0.00,WUHU21623XXSP,2013-01-06 14:33:00,
2013-01-06 08:38:00,8.8,3.2,29.53,WNW,292,0.0,0.0,78,0.00,,,0.00,WUHU21623XXSP,2013-01-06 14:38:00,
2013-01-06 08:43:00,9.0,3.5,29.54,WNW,292,0.0,0.0,78,0.00,,,0.00,WUHU21623XXSP,2013-01-06 14:43:00,
2013-01-06 08:48:00,9.1,3.6,29.54,NW,315,0.0,0.0,78,0.00,,,0.00,WUHU21623XXSP,2013-01-06 14:48:00,
2013-01-06 08:53:00,9.5,4.0,29.54,WNW,292,0.0,0.0,78,0.00,,,0.00,WUHU21623XXSP,2013-01-06 14:53:00,
2013-01-06 08:58:00,9.7,4.1,29.54,WNW,292,1.6,1.6,78,0.00,,,0.00,WUHU21623XXSP,2013-01-06 14:58:00,
2013-01-06 09:03:00,10.0,4.5,29.54,WNW,292,0.0,1.6,78,0.00,,,0.00,WUHU21623XXSP,2013-01-06 15:03:00,
2013-01-06 09:08:00,10.6,4.6,29.54,WNW,292,0.0,0.0,78,0.00,,,0.00,WUHU21623XXSP,2013-01-06 15:08:00,
2013-01-06 09:13:00,10.9,5.6,29.54,West,270,0.0,0.0,79,0.00,,,0.00,WUHU21623XXSP,2013-01-06 15:13:00,
2013-01-06 09:18:00,11.7,6.0,29.54,West,270,0.0,0.0,78,0.00,,,0.00,WUHU21623XXSP,2013-01-06 15:18:00,
2013-01-06 09:23:00,12.0,6.4,29.55,West,270,0.0,0.0,78,0.00,,,0.00,WUHU21623XXSP,2013-01-06 15:23:00,
2013-01-06 09:28:00,12.6,6.9,29.55,West,270,0.0,0.0,78,0.00,,,0.00,WUHU21623XXSP,2013-01-06 15:28:00,
2013-01-06 09:33:00,13.6,8.0,29.55,West,270,0.0,0.0,78,0.00,,,0.00,WUHU21623XXSP,2013-01-06 15:33:00,
2013-01-06 09:38:00,14.5,8.6,29.55,WNW,292,0.0,0.0,77,0.00,,,0.00,WUHU21623XXSP,2013-01-06 15:38:00,
2013-01-06 09:43:00,15.6,8.8,29.55,West,270,0.0,0.0,76,0.00,,,0.00,WUHU21623XXSP,2013-01-06 15:43:00,
2013-01-06 09:48:00,16.5,9.6,29.56,West,270,0.0,0.0,74,0.00,,,0.00,WUHU21623XXSP,2013-01-06 15:48:00,
2013-01-06 09:53:00,17.4,10.5,29.56,WNW,292,0.0,0.0,74,0.00,,,0.00,WUHU21623XXSP,2013-01-06 15:53:00,
2013-01-06 09:58:00,18.1,11.1,29.56,WNW,292,0.0,0.0,73,0.00,,,0.00,WUHU21623XXSP,2013-01-06 15:58:00,
2013-01-06 10:03:00,18.7,10.6,29.56,West,270,0.0,0.0,71,0.00,,,0.00,WUHU21623XXSP,2013-01-06 16:03:00,
2013-01-06 10:08:00,19.2,11.0,29.56,WNW,292,0.0,0.0,70,0.00,,,0.00,WUHU21623XXSP,2013-01-06 16:08:00,
2013-01-06 10:14:00,19.2,11.0,29.56,West,270,0.0,0.0,70,0.00,,,0.00,WUHU21623XXSP,2013-01-06 16:14:00,
2013-01-06 10:18:00,21.0,12.1,29.56,WNW,292,0.0,0.0,68,0.00,,,0.00,WUHU21623XXSP,2013-01-06 16:18:00,
2013-01-06 10:23:00,21.0,13.3,29.56,WNW,292,0.0,0.0,67,0.00,,,0.00,WUHU21623XXSP,2013-01-06 16:23:00,
2013-01-06 10:29:00,24.4,14.6,29.56,WNW,292,0.0,0.0,66,0.00,,,0.00,WUHU21623XXSP,2013-01-06 16:29:00,
2013-01-06 10:34:00,27.1,16.2,29.56,WNW,292,0.0,0.0,63,0.00,,,0.00,WUHU21623XXSP,2013-01-06 16:34:00,
2013-01-06 10:39:00,28.2,16.3,29.57,WNW,292,0.0,0.0,61,0.00,,,0.00,WUHU21623XXSP,2013-01-06 16:39:00,
2013-01-06 10:44:00,29.5,16.9,29.57,WNW,292,0.0,2.0,59,0.00,,,0.00,WUHU21623XXSP,2013-01-06 16:44:00,
2013-01-06 10:49:00,30.0,16.6,29.56,WNW,292,0.0,2.0,57,0.00,,,0.00,WUHU21623XXSP,2013-01-06 16:49:00,
2013-01-06 10:54:00,30.6,16.6,29.56,WNW,292,0.0,0.0,56,0.00,,,0.00,WUHU21623XXSP,2013-01-06 16:54:00,
2013-01-06 10:59:00,30.7,16.4,29.57,WNW,292,6.0,6.0,55,0.00,,,0.00,WUHU21623XXSP,2013-01-06 16:59:00,
2013-01-06 11:04:00,30.7,16.0,29.57,WNW,292,2.0,6.0,54,0.00,,,0.00,WUHU21623XXSP,2013-01-06 17:04:00,
2013-01-06 11:09:00,30.9,15.9,29.56,WNW,292,0.0,2.0,53,0.00,,,0.00,WUHU21623XXSP,2013-01-06 17:09:00,
2013-01-06 11:14:00,30.9,14.9,29.57,WNW,292,5.1,5.1,51,0.00,,,0.00,WUHU21623XXSP,2013-01-06 17:14:00,
2013-01-06 11:19:00,30.2,14.2,29.57,WNW,292,6.9,7.8,51,0.00,,,0.00,WUHU21623XXSP,2013-01-06 17:19:00,
2013-01-06 11:24:00,29.8,14.3,29.56,West,270,0.0,7.8,52,0.00,,,0.00,WUHU21623XXSP,2013-01-06 17:24:00,
2013-01-06 11:29:00,30.6,15.4,29.56,West,270,2.0,3.1,53,0.00,,,0.00,WUHU21623XXSP,2013-01-06 17:29:00,
2013-01-06 11:34:00,30.9,15.3,29.56,WNW,292,2.9,3.1,52,0.00,,,0.00,WUHU21623XXSP,2013-01-06 17:34:00,
2013-01-06 11:39:00,30.7,14.7,29.56,WNW,292,0.0,4.9,51,0.00,,,0.00,WUHU21623XXSP,2013-01-06 17:39:00,
2013-01-06 11:44:00,30.7,14.7,29.55,West,270,4.5,4.9,51,0.00,,,0.00,WUHU21623XXSP,2013-01-06 17:44:00,
2013-01-06 11:49:00,30.7,14.7,29.55,WNW,292,3.8,4.5,51,0.00,,,0.00,WUHU21623XXSP,2013-01-06 17:49:00,
2013-01-06 11:54:00,30.4,14.0,29.55,WNW,292,1.3,3.8,50,0.00,,,0.00,WUHU21623XXSP,2013-01-06 17:54:00,
2013-01-06 11:59:00,30.0,14.5,29.55,West,270,2.0,3.8,52,0.00,,,0.00,WUHU21623XXSP,2013-01-06 17:59:00,
2013-01-06 12:04:00,30.0,14.1,29.55,WNW,292,0.0,3.4,51,0.00,,,0.00,WUHU21623XXSP,2013-01-06 18:04:00,
2013-01-06 12:09:00,29.8,14.3,29.54,WNW,292,1.6,1.6,52,0.00,,,0.00,WUHU21623XXSP,2013-01-06 18:09:00,
2013-01-06 12:14:00,29.3,14.3,29.54,West,270,0.0,1.6,53,0.00,,,0.00,WUHU21623XXSP,2013-01-06 18:14:00,
2013-01-06 12:19:00,29.3,14.3,29.55,West,270,0.0,1.1,53,0.00,,,0.00,WUHU21623XXSP,2013-01-06 18:19:00,
2013-01-06 12:24:00,28.9,13.5,29.55,WNW,292,0.0,1.1,52,0.00,,,0.00,WUHU21623XXSP,2013-01-06 18:24:00,
2013-01-06 12:29:00,28.6,13.2,29.55,West,270,0.0,1.1,52,0.00,,,0.00,WUHU21623XXSP,2013-01-06 18:29:00,
2013-01-06 12:34:00,28.2,13.7,29.55,West,270,0.0,0.0,54,0.00,,,0.00,WUHU21623XXSP,2013-01-06 18:34:00,
2013-01-06 12:39:00,28.6,14.4,29.55,West,270,0.0,0.0,55,0.00,,,0.00,WUHU21623XXSP,2013-01-06 18:39:00,
2013-01-06 12:44:00,28.6,14.0,29.55,West,270,1.6,1.6,54,0.00,,,0.00,WUHU21623XXSP,2013-01-06 18:44:00,
2013-01-06 12:49:00,28.2,13.7,29.54,West,270,0.0,1.6,54,0.00,,,0.00,WUHU21623XXSP,2013-01-06 18:49:00,
2013-01-06 12:54:00,27.7,13.5,29.54,West,270,0.0,1.6,54,0.00,,,0.00,WUHU21623XXSP,2013-01-06 18:54:00,
2013-01-06 12:59:00,27.3,12.8,29.55,West,270,0.0,0.0,54,0.00,,,0.00,WUHU21623XXSP,2013-01-06 18:59:00,
2013-01-06 13:05:00,27.1,12.6,29.54,West,270,0.0,0.0,54,0.00,,,0.00,WUHU21623XXSP,2013-01-06 19:05:00,
2013-01-06 13:10:00,26.2,12.1,29.55,West,270,3.8,3.8,55,0.00,,,0.00,WUHU21623XXSP,2013-01-06 19:10:00,
2013-01-06 13:15:00,25.5,11.5,29.54,WNW,292,0.0,5.1,55,0.00,,,0.00,WUHU21623XXSP,2013-01-06 19:15:00,
2013-01-06 13:20:00,25.2,11.6,29.54,West,270,0.0,5.1,56,0.00,,,0.00,WUHU21623XXSP,2013-01-06 19:20:00,
2013-01-06 13:25:00,25.0,11.8,29.54,West,270,0.0,0.0,57,0.00,,,0.00,WUHU21623XXSP,2013-01-06 19:25:00,
2013-01-06 13:30:00,25.0,12.3,29.54,West,270,0.0,0.0,58,0.00,,,0.00,WUHU21623XXSP,2013-01-06 19:30:00,
2013-01-06 13:35:00,24.6,11.9,29.53,West,270,0.0,0.0,58,0.00,,,0.00,WUHU21623XXSP,2013-01-06 19:35:00,
2013-01-06 13:40:00,24.4,11.7,29.53,WNW,292,1.8,1.8,58,0.00,,,0.00,WUHU21623XXSP,2013-01-06 19:40:00,
2013-01-06 13:45:00,23.9,11.6,29.53,West,270,0.0,1.8,59,0.00,,,0.00,WUHU21623XXSP,2013-01-06 19:45:00,
2013-01-06 13:50:00,23.4,11.2,29.54,WSW,247,0.0,0.0,59,0.00,,,0.00,WUHU21623XXSP,2013-01-06 19:50:00,
2013-01-06 13:55:00,22.8,11.0,29.54,WSW,247,2.5,2.5,60,0.00,,,0.00,WUHU21623XXSP,2013-01-06 19:55:00,
2013-01-06 14:00:00,22.6,10.8,29.53,WSW,247,0.0,3.1,60,0.00,,,0.00,WUHU21623XXSP,2013-01-06 20:00:00,
2013-01-06 14:05:00,22.3,10.8,29.54,WNW,292,2.9,3.1,61,0.00,,,0.00,WUHU21623XXSP,2013-01-06 20:05:00,
2013-01-06 14:10:00,22.1,10.7,29.54,WSW,247,0.0,2.9,61,0.00,,,0.00,WUHU21623XXSP,2013-01-06 20:10:00,
2013-01-06 14:11:00,22.1,10.7,29.54,WSW,247,0.0,2.9,61,0.00,,,0.00,WUHU21623XXSP,2013-01-06 20:11:00,
2013-01-06 14:13:00,21.9,10.7,29.54,WSW,247,0.0,2.9,62,0.00,,,0.00,WUHU21623XXSP,2013-01-06 20:13:00,
2013-01-06 14:18:00,22.1,11.0,29.54,WNW,292,0.0,0.0,62,0.00,,,0.00,WUHU21623XXSP,2013-01-06 20:18:00,
2013-01-06 14:23:00,21.9,10.8,29.54,WNW,292,0.0,0.0,62,0.00,,,0.00,WUHU21623XXSP,2013-01-06 20:23:00,
2013-01-06 14:28:00,21.7,11.0,29.54,WNW,292,0.0,0.0,63,0.00,,,0.00,WUHU21623XXSP,2013-01-06 20:28:00,
2013-01-06 14:33:00,21.7,11.0,29.54,WNW,292,0.0,0.0,63,0.00,,,0.00,WUHU21623XXSP,2013-01-06 20:33:00,
2013-01-06 14:38:00,21.7,11.0,29.54,WNW,292,0.0,0.0,63,0.00,,,0.00,WUHU21623XXSP,2013-01-06 20:38:00,
2013-01-06 14:44:00,21.4,10.7,29.54,WNW,292,0.0,0.0,63,0.00,,,0.00,WUHU21623XXSP,2013-01-06 20:44:00,
2013-01-06 14:49:00,21.4,11.0,29.54,WNW,292,0.0,0.0,64,0.00,,,0.00,WUHU21623XXSP,2013-01-06 20:49:00,
2013-01-06 14:54:00,21.2,10.9,29.55,WNW,292,0.0,0.0,64,0.00,,,0.00,WUHU21623XXSP,2013-01-06 20:54:00,
2013-01-06 14:59:00,21.0,10.7,29.54,WSW,247,0.0,0.0,64,0.00,,,0.00,WUHU21623XXSP,2013-01-06 20:59:00,
2013-01-06 15:01:00,21.2,11.2,29.54,West,270,0.0,0.0,65,0.00,,,0.00,WUHU21623XXSP,2013-01-06 21:01:00,
2013-01-06 15:06:00,21.4,11.4,29.55,West,270,0.0,0.0,65,0.00,,,0.00,WUHU21623XXSP,2013-01-06 21:06:00,
2013-01-06 15:11:00,21.4,11.4,29.55,WNW,292,0.0,0.0,65,0.00,,,0.00,WUHU21623XXSP,2013-01-06 21:11:00,
2013-01-06 15:16:00,21.0,11.0,29.55,West,270,0.0,3.1,65,0.00,,,0.00,WUHU21623XXSP,2013-01-06 21:16:00,
2013-01-06 15:21:00,20.8,10.8,29.55,West,270,0.0,3.1,65,0.00,,,0.00,WUHU21623XXSP,2013-01-06 21:21:00,
2013-01-06 15:26:00,20.5,10.5,29.55,West,270,0.0,0.0,65,0.00,,,0.00,WUHU21623XXSP,2013-01-06 21:26:00,
2013-01-06 15:31:00,20.3,10.3,29.55,West,270,0.0,0.0,65,0.00,,,0.00,WUHU21623XXSP,2013-01-06 21:31:00,
2013-01-06 15:36:00,20.1,10.5,29.55,West,270,0.0,0.0,66,0.00,,,0.00,WUHU21623XXSP,2013-01-06 21:36:00,
2013-01-06 15:41:00,20.1,10.5,29.55,West,270,0.0,0.0,66,0.00,,,0.00,WUHU21623XXSP,2013-01-06 21:41:00,
2013-01-06 15:46:00,19.9,10.3,29.54,WNW,292,0.0,0.0,66,0.00,,,0.00,WUHU21623XXSP,2013-01-06 21:46:00,
2013-01-06 15:51:00,19.6,9.9,29.54,WNW,292,0.0,0.0,66,0.00,,,0.00,WUHU21623XXSP,2013-01-06 21:51:00,
2013-01-06 15:56:00,19.6,9.9,29.54,WNW,292,0.0,0.0,66,0.00,,,0.00,WUHU21623XXSP,2013-01-06 21:56:00,
2013-01-06 16:01:00,19.2,9.6,29.54,WNW,292,0.0,0.0,66,0.00,,,0.00,WUHU21623XXSP,2013-01-06 22:01:00,
2013-01-06 16:06:00,19.0,9.4,29.54,West,270,0.0,0.0,66,0.00,,,0.00,WUHU21623XXSP,2013-01-06 22:06:00,
2013-01-06 16:11:00,18.9,9.3,29.54,West,270,0.0,0.0,66,0.00,,,0.00,WUHU21623XXSP,2013-01-06 22:11:00,
2013-01-06 16:16:00,18.7,9.1,29.54,West,270,0.0,0.0,66,0.00,,,0.00,WUHU21623XXSP,2013-01-06 22:16:00,
2013-01-06 16:21:00,18.5,9.3,29.54,West,270,0.0,0.0,67,0.00,,,0.00,WUHU21623XXSP,2013-01-06 22:21:00,
2013-01-06 16:26:00,18.3,9.1,29.54,West,270,0.0,0.0,67,0.00,,,0.00,WUHU21623XXSP,2013-01-06 22:26:00,
2013-01-06 16:31:00,18.1,9.0,29.54,West,270,0.0,0.0,67,0.00,,,0.00,WUHU21623XXSP,2013-01-06 22:31:00,
2013-01-06 16:36:00,17.8,8.6,29.54,WSW,247,0.0,0.0,67,0.00,,,0.00,WUHU21623XXSP,2013-01-06 22:36:00,
2013-01-06 16:41:00,17.2,8.5,29.54,WSW,247,0.0,0.0,68,0.00,,,0.00,WUHU21623XXSP,2013-01-06 22:41:00,
2013-01-06 16:46:00,16.9,8.1,29.53,SW,225,0.0,0.0,68,0.00,,,0.00,WUHU21623XXSP,2013-01-06 22:46:00,
2013-01-06 16:51:00,16.5,7.4,29.53,SW,225,0.0,0.0,67,0.00,,,0.00,WUHU21623XXSP,2013-01-06 22:51:00,
2013-01-06 16:56:00,15.3,6.5,29.53,SW,225,0.0,0.0,68,0.00,,,0.00,WUHU21623XXSP,2013-01-06 22:56:00,
2013-01-06 17:01:00,14.5,5.9,29.53,SW,225,0.0,0.0,68,0.00,,,0.00,WUHU21623XXSP,2013-01-06 23:01:00,
2013-01-06 17:06:00,13.8,5.2,29.54,SW,225,0.0,0.0,68,0.00,,,0.00,WUHU21623XXSP,2013-01-06 23:06:00,
2013-01-06 17:11:00,13.1,4.8,29.53,SW,225,0.0,0.0,69,0.00,,,0.00,WUHU21623XXSP,2013-01-06 23:11:00,
2013-01-06 17:18:00,12.9,4.7,29.53,SW,225,0.0,0.0,69,0.00,,,0.00,WUHU21623XXSP,2013-01-06 23:18:00,
2013-01-06 17:23:00,12.9,4.7,29.53,SW,225,0.0,0.0,70,0.00,,,0.00,WUHU21623XXSP,2013-01-06 23:23:00,
2013-01-06 17:28:00,12.9,5.0,29.53,SW,225,0.0,0.0,70,0.00,,,0.00,WUHU21623XXSP,2013-01-06 23:28:00,
2013-01-06 17:33:00,13.3,5.6,29.54,SW,225,0.0,0.0,71,0.00,,,0.00,WUHU21623XXSP,2013-01-06 23:33:00,
2013-01-06 17:38:00,13.3,5.6,29.53,SW,225,0.0,0.0,71,0.00,,,0.00,WUHU21623XXSP,2013-01-06 23:38:00,
2013-01-06 17:43:00,13.1,5.5,29.53,SW,225,0.0,0.0,71,0.00,,,0.00,WUHU21623XXSP,2013-01-06 23:43:00,
2013-01-06 17:48:00,12.7,5.1,29.53,SW,225,0.0,0.0,71,0.00,,,0.00,WUHU21623XXSP,2013-01-06 23:48:00,
2013-01-06 17:53:00,12.4,5.2,29.53,SW,225,0.0,0.0,72,0.00,,,0.00,WUHU21623XXSP,2013-01-06 23:53:00,
2013-01-06 17:58:00,12.0,4.7,29.53,SW,225,0.0,0.0,72,0.00,,,0.00,WUHU21623XXSP,2013-01-06 23:58:00,
2013-01-06 18:03:00,11.3,4.0,29.53,SW,225,0.0,0.0,72,0.00,,,0.00,WUHU21623XXSP,2013-01-07 00:03:00,
2013-01-06 18:08:00,10.9,3.6,29.53,SW,225,0.0,0.0,72,0.00,,,0.00,WUHU21623XXSP,2013-01-07 00:08:00,
2013-01-06 18:13:00,10.6,3.5,29.53,SW,225,0.0,0.0,73,0.00,,,0.00,WUHU21623XXSP,2013-01-07 00:13:00,
2013-01-06 18:18:00,10.6,3.5,29.53,SSW,202,3.6,3.6,73,0.00,,,0.00,WUHU21623XXSP,2013-01-07 00:18:00,
2013-01-06 18:23:00,10.8,4.0,29.53,SSW,202,3.1,3.6,74,0.00,,,0.00,WUHU21623XXSP,2013-01-07 00:23:00,
2013-01-06 18:28:00,11.1,4.4,29.52,SSW,202,0.9,3.1,74,0.00,,,0.00,WUHU21623XXSP,2013-01-07 00:28:00,
2013-01-06 18:33:00,11.1,4.6,29.52,SSW,202,3.4,3.6,75,0.00,,,0.00,WUHU21623XXSP,2013-01-07 00:33:00,
2013-01-06 18:38:00,11.3,4.8,29.52,SSW,202,0.0,3.6,75,0.00,,,0.00,WUHU21623XXSP,2013-01-07 00:38:00,
2013-01-06 18:43:00,11.1,4.6,29.52,SSW,202,0.0,3.4,75,0.00,,,0.00,WUHU21623XXSP,2013-01-07 00:43:00,
2013-01-06 18:48:00,11.1,4.6,29.52,SSW,202,0.0,0.0,75,0.00,,,0.00,WUHU21623XXSP,2013-01-07 00:48:00,
2013-01-06 18:53:00,10.9,4.5,29.52,SSW,202,0.0,0.0,75,0.00,,,0.00,WUHU21623XXSP,2013-01-07 00:53:00,
2013-01-06 18:58:00,10.6,4.4,29.52,SSW,202,0.0,0.0,76,0.00,,,0.00,WUHU21623XXSP,2013-01-07 00:58:00,
2013-01-06 19:03:00,10.6,4.4,29.52,SSW,202,0.0,0.0,76,0.00,,,0.00,WUHU21623XXSP,2013-01-07 01:03:00,
2013-01-06 19:08:00,10.6,4.4,29.52,SSW,202,0.0,0.0,76,0.00,,,0.00,WUHU21623XXSP,2013-01-07 01:08:00,
2013-01-06 19:13:00,10.2,4.0,29.52,SSW,202,0.0,0.0,76,0.00,,,0.00,WUHU21623XXSP,2013-01-07 01:13:00,
2013-01-06 19:18:00,10.6,4.4,29.52,SSW,202,0.0,0.0,76,0.00,,,0.00,WUHU21623XXSP,2013-01-07 01:18:00,
2013-01-06 19:23:00,10.8,4.6,29.52,SW,225,0.0,0.0,76,0.00,,,0.00,WUHU21623XXSP,2013-01-07 01:23:00,
2013-01-06 19:29:00,11.1,5.2,29.52,SSW,202,1.8,2.2,77,0.00,,,0.00,WUHU21623XXSP,2013-01-07 01:29:00,
2013-01-06 19:34:00,11.1,5.2,29.52,SSW,202,0.0,2.2,77,0.00,,,0.00,WUHU21623XXSP,2013-01-07 01:34:00,
2013-01-06 19:39:00,11.3,5.4,29.52,SSW,202,0.0,0.0,77,0.00,,,0.00,WUHU21623XXSP,2013-01-07 01:39:00,
2013-01-06 19:44:00,11.3,5.4,29.52,SSW,202,0.0,0.0,77,0.00,,,0.00,WUHU21623XXSP,2013-01-07 01:44:00,
2013-01-06 19:49:00,11.3,5.4,29.51,SSW,202,0.0,0.0,77,0.00,,,0.00,WUHU21623XXSP,2013-01-07 01:49:00,
2013-01-06 19:54:00,11.3,5.4,29.51,SSW,202,0.0,0.0,77,0.00,,,0.00,WUHU21623XXSP,2013-01-07 01:54:00,
2013-01-06 19:59:00,11.3,5.4,29.51,SSW,202,0.0,1.1,77,0.00,,,0.00,WUHU21623XXSP,2013-01-07 01:59:00,
2013-01-06 20:04:00,11.3,5.4,29.51,SSW,202,0.0,1.1,77,0.00,,,0.00,WUHU21623XXSP,2013-01-07 02:04:00,
2013-01-06 20:09:00,11.3,5.4,29.51,SSW,202,0.0,0.0,77,0.00,,,0.00,WUHU21623XXSP,2013-01-07 02:09:00,
2013-01-06 20:14:00,11.3,5.4,29.50,SSW,202,0.0,0.0,77,0.00,,,0.00,WUHU21623XXSP,2013-01-07 02:14:00,
2013-01-06 20:19:00,11.3,5.4,29.50,SSW,202,0.0,0.0,77,0.00,,,0.00,WUHU21623XXSP,2013-01-07 02:19:00,
2013-01-06 20:24:00,11.1,5.2,29.50,SSW,202,0.0,0.0,77,0.00,,,0.00,WUHU21623XXSP,2013-01-07 02:24:00,
2013-01-06 20:29:00,10.8,4.9,29.49,SSW,202,0.0,0.0,77,0.00,,,0.00,WUHU21623XXSP,2013-01-07 02:29:00,
2013-01-06 20:34:00,10.6,4.7,29.49,SSW,202,0.0,0.0,77,0.00,,,0.00,WUHU21623XXSP,2013-01-07 02:34:00,
2013-01-06 20:39:00,10.6,4.7,29.48,South,180,0.0,0.0,77,0.00,,,0.00,WUHU21623XXSP,2013-01-07 02:39:00,
2013-01-06 20:44:00,10.9,5.3,29.48,SSW,202,3.1,3.1,78,0.00,,,0.00,WUHU21623XXSP,2013-01-07 02:44:00,
2013-01-06 20:49:00,11.3,5.7,29.48,South,180,0.0,3.1,78,0.00,,,0.00,WUHU21623XXSP,2013-01-07 02:49:00,
2013-01-06 20:54:00,12.0,6.5,29.47,South,180,2.0,2.0,79,0.00,,,0.00,WUHU21623XXSP,2013-01-07 02:54:00,
2013-01-06 20:59:00,12.6,7.1,29.47,SSW,202,4.7,4.7,79,0.00,,,0.00,WUHU21623XXSP,2013-01-07 02:59:00,
2013-01-06 21:04:00,12.9,7.6,29.47,SSW,202,6.9,6.9,79,0.00,,,0.00,WUHU21623XXSP,2013-01-07 03:04:00,
2013-01-06 21:09:00,13.3,8.0,29.47,SSW,202,4.3,6.9,79,0.00,,,0.00,WUHU21623XXSP,2013-01-07 03:09:00,
2013-01-06 21:14:00,13.8,8.5,29.47,SSW,202,3.8,5.6,79,0.00,,,0.00,WUHU21623XXSP,2013-01-07 03:14:00,
2013-01-06 21:20:00,14.7,9.3,29.46,SSW,202,7.2,8.1,80,0.00,,,0.00,WUHU21623XXSP,2013-01-07 03:20:00,
2013-01-06 21:25:00,15.1,10.0,29.46,SSW,202,4.3,8.5,80,0.00,,,0.00,WUHU21623XXSP,2013-01-07 03:25:00,
2013-01-06 21:30:00,15.4,9.7,29.46,SSW,202,9.2,9.2,79,0.00,,,0.00,WUHU21623XXSP,2013-01-07 03:30:00,
2013-01-06 21:35:00,15.6,10.3,29.45,SSW,202,10.3,10.3,79,0.00,,,0.00,WUHU21623XXSP,2013-01-07 03:35:00,
2013-01-06 21:40:00,16.0,10.6,29.45,SSW,202,6.3,10.3,79,0.00,,,0.00,WUHU21623XXSP,2013-01-07 03:40:00,
2013-01-06 21:45:00,16.3,10.8,29.44,SW,225,11.6,11.6,79,0.00,,,0.00,WUHU21623XXSP,2013-01-07 03:45:00,
2013-01-06 21:50:00,16.5,11.1,29.44,SSW,202,6.0,11.6,79,0.00,,,0.00,WUHU21623XXSP,2013-01-07 03:50:00,
2013-01-06 21:55:00,16.7,11.1,29.44,SSW,202,2.9,7.4,79,0.00,,,0.00,WUHU21623XXSP,2013-01-07 03:55:00,
2013-01-06 22:00:00,16.9,11.4,29.43,SSW,202,7.4,7.6,79,0.00,,,0.00,WUHU21623XXSP,2013-01-07 04:00:00,
2013-01-06 22:05:00,17.2,11.8,29.44,SSW,202,6.0,7.6,79,0.00,,,0.00,WUHU21623XXSP,2013-01-07 04:05:00,
2013-01-06 22:10:00,17.2,11.8,29.43,South,180,4.0,6.0,79,0.00,,,0.00,WUHU21623XXSP,2013-01-07 04:10:00,
2013-01-06 22:15:00,17.4,11.9,29.44,SSW,202,7.2,7.4,79,0.00,,,0.00,WUHU21623XXSP,2013-01-07 04:15:00,
2013-01-06 22:20:00,17.4,11.9,29.44,SSW,202,6.5,7.4,79,0.00,,,0.00,WUHU21623XXSP,2013-01-07 04:20:00,
2013-01-06 22:25:00,17.8,12.3,29.43,SSW,202,7.2,7.2,79,0.00,,,0.00,WUHU21623XXSP,2013-01-07 04:25:00,
2013-01-06 22:30:00,18.0,12.3,29.43,SSW,202,7.6,7.6,79,0.00,,,0.00,WUHU21623XXSP,2013-01-07 04:30:00,
2013-01-06 22:35:00,18.1,12.6,29.43,SSW,202,8.1,9.4,79,0.00,,,0.00,WUHU21623XXSP,2013-01-07 04:35:00,
2013-01-06 22:40:00,18.3,12.8,29.43,SW,225,7.8,9.4,79,0.00,,,0.00,WUHU21623XXSP,2013-01-07 04:40:00,
2013-01-06 22:45:00,18.5,12.8,29.43,SW,225,7.8,7.8,79,0.00,,,0.00,WUHU21623XXSP,2013-01-07 04:45:00,
2013-01-06 22:50:00,18.7,12.8,29.42,SSW,202,11.0,11.0,78,0.00,,,0.00,WUHU21623XXSP,2013-01-07 04:50:00,
2013-01-06 22:55:00,18.7,12.8,29.41,SSW,202,6.7,11.0,78,0.00,,,0.00,WUHU21623XXSP,2013-01-07 04:55:00,
2013-01-06 23:00:00,18.9,13.0,29.42,SSW,202,11.6,11.6,78,0.00,,,0.00,WUHU21623XXSP,2013-01-07 05:00:00,
2013-01-06 23:01:00,19.0,13.2,29.42,SSW,202,9.6,11.6,78,0.00,,,0.00,WUHU21623XXSP,2013-01-07 05:01:00,
2013-01-06 23:06:00,19.2,13.4,29.42,SW,225,12.8,12.8,78,0.00,,,0.00,WUHU21623XXSP,2013-01-07 05:06:00,
2013-01-06 23:11:00,19.4,13.6,29.42,SW,225,3.1,12.8,78,0.00,,,0.00,WUHU21623XXSP,2013-01-07 05:11:00,
2013-01-06 23:16:00,19.6,13.7,29.42,SW,225,2.9,10.5,78,0.00,,,0.00,WUHU21623XXSP,2013-01-07 05:16:00,
2013-01-06 23:21:00,19.6,13.7,29.42,SSW,202,7.4,9.6,78,0.00,,,0.00,WUHU21623XXSP,2013-01-07 05:21:00,
2013-01-06 23:26:00,19.6,13.4,29.42,SW,225,6.9,7.4,77,0.00,,,0.00,WUHU21623XXSP,2013-01-07 05:26:00,
2013-01-06 23:31:00,19.2,13.1,29.41,SSW,202,7.6,7.6,77,0.00,,,0.00,WUHU21623XXSP,2013-01-07 05:31:00,
2013-01-06 23:36:00,19.2,13.1,29.41,SW,225,6.5,7.6,77,0.00,,,0.00,WUHU21623XXSP,2013-01-07 05:36:00,
2013-01-06 23:41:00,19.0,12.9,29.41,SW,225,3.1,7.4,77,0.00,,,0.00,WUHU21623XXSP,2013-01-07 05:41:00,
2013-01-06 23:46:00,19.0,12.9,29.40,SW,225,9.4,9.4,77,0.00,,,0.00,WUHU21623XXSP,2013-01-07 05:46:00,
2013-01-06 23:51:00,19.0,12.9,29.40,SSW,202,3.4,9.4,77,0.00,,,0.00,WUHU21623XXSP,2013-01-07 05:51:00,
2013-01-06 23:56:00,19.0,12.9,29.40,SW,225,6.3,9.8,77,0.00,,,0.00,WUHU21623XXSP,2013-01-07 05:56:00,